Time;durP1;ratioP1;P1;durP2;ratioP2;P2;SDS_P1;SDS_P2;PMS_P1;PMS_P2;Temp;Humidity;BMP_temperature;BMP_pressure;BME280_temperature;BME280_humidity;BME280_pressure;Samples;Min_cycle;Max_cycle;Signal;HPM_P1;HPM_P2
2023/04/12 00:01:13;;;;;;;6.37;3.83;;;9.00;99.90;;;;;;5016552;28;20542;-79
2023/04/12 00:03:38;;;;;;;10.30;4.33;;;9.10;99.90;;;;;;4998908;28;20195;-79
2023/04/12 00:06:06;;;;;;;7.00;3.77;;;9.10;99.90;;;;;;4998677;28;20658;-79
2023/04/12 00:08:32;;;;;;;7.60;4.03;;;9.10;99.90;;;;;;4998722;28;20207;-78
2023/04/12 00:11:02;;;;;;;6.87;3.40;;;9.10;99.90;;;;;;5016578;28;20667;-78
2023/04/12 00:13:28;;;;;;;7.03;4.10;;;9.10;99.90;;;;;;5015938;28;20298;-79
2023/04/12 00:15:54;;;;;;;4.07;3.60;;;9.10;99.90;;;;;;5016057;28;20184;-79
2023/04/12 00:25:28;;;;;;;6.53;3.77;;;9.10;99.90;;;;;;5019277;28;20583;-79
2023/04/12 00:28:04;;;;;;;8.90;3.60;;;9.10;99.90;;;;;;5000332;28;20184;-79
2023/04/12 00:30:29;;;;;;;7.40;3.93;;;9.10;99.90;;;;;;5019294;28;20171;-79
2023/04/12 00:39:39;;;;;;;8.90;4.27;;;9.10;99.90;;;;;;5021110;28;20547;-79
2023/04/12 00:58:58;;;;;;;5.97;4.20;;;9.30;99.90;;;;;;5022290;28;20171;-82
2023/04/12 01:01:33;;;;;;;5.67;3.90;;;9.20;99.90;;;;;;5005109;28;20188;-83
2023/04/12 01:04:00;;;;;;;7.27;3.60;;;9.20;99.90;;;;;;5021988;28;20575;-83
2023/04/12 01:06:47;;;;;;;10.90;4.10;;;9.20;99.90;;;;;;5004445;28;20180;-82
2023/04/12 01:09:19;;;;;;;7.30;4.00;;;9.30;99.90;;;;;;5004241;28;20616;-82
2023/04/12 01:12:20;;;;;;;11.33;3.90;;;9.40;99.90;;;;;;5022774;28;20176;-82
2023/04/12 01:15:12;;;;;;;8.60;3.80;;;9.40;99.90;;;;;;5022530;28;20215;-82
2023/04/12 01:18:02;;;;;;;9.23;4.57;;;9.30;99.90;;;;;;5022727;28;20180;-82
2023/04/12 01:20:34;;;;;;;13.27;4.83;;;9.30;99.90;;;;;;5022655;28;20156;-80
2023/04/12 01:23:21;;;;;;;7.90;3.87;;;9.30;99.90;;;;;;5002230;28;20195;-80
2023/04/12 01:25:47;;;;;;;4.97;4.07;;;9.20;99.90;;;;;;5020188;28;20608;-80
2023/04/12 01:28:31;;;;;;;6.03;3.90;;;9.20;99.90;;;;;;5002987;28;20262;-80
2023/04/12 01:30:58;;;;;;;5.80;3.97;;;9.10;99.90;;;;;;5023293;28;20171;-80
2023/04/12 01:33:30;;;;;;;5.30;3.80;;;9.10;99.90;;;;;;5024711;28;20191;-80
2023/04/12 01:36:01;;;;;;;5.13;3.37;;;9.20;99.90;;;;;;5004440;28;20191;-80
2023/04/12 01:38:28;;;;;;;6.57;3.70;;;9.10;99.90;;;;;;5021475;28;20161;-81
2023/04/12 01:40:55;;;;;;;8.00;3.90;;;9.10;99.90;;;;;;5019536;28;20167;-80
2023/04/12 01:43:21;;;;;;;5.43;3.80;;;9.10;99.90;;;;;;5021011;28;20192;-80
2023/04/12 01:45:47;;;;;;;5.83;3.70;;;9.00;99.90;;;;;;5003242;28;20184;-80
2023/04/12 01:48:12;;;;;;;7.27;4.03;;;9.10;99.90;;;;;;5020692;28;20183;-80
2023/04/12 01:50:59;;;;;;;5.23;3.67;;;9.00;99.90;;;;;;5019231;28;20180;-80
2023/04/12 01:53:50;;;;;;;6.67;3.97;;;9.00;99.90;;;;;;5020395;28;20223;-80
2023/04/12 01:56:19;;;;;;;7.83;4.17;;;9.00;99.90;;;;;;5000990;28;20282;-79
2023/04/12 01:58:47;;;;;;;9.53;3.80;;;8.90;99.90;;;;;;5001788;28;20230;-79
2023/04/12 02:01:14;;;;;;;11.73;3.90;;;9.00;99.90;;;;;;5001574;28;20230;-79
2023/04/12 02:03:41;;;;;;;6.10;3.80;;;8.90;99.90;;;;;;5019306;28;20194;-79
2023/04/12 02:06:08;;;;;;;4.83;4.20;;;9.00;99.90;;;;;;5019375;28;20301;-79
2023/04/12 02:08:35;;;;;;;7.53;3.50;;;8.90;99.90;;;;;;5019805;28;20836;-79
2023/04/12 02:11:06;;;;;;;7.13;4.47;;;8.90;99.90;;;;;;5003701;28;20200;-79
2023/04/12 02:13:32;;;;;;;6.83;4.10;;;8.80;99.90;;;;;;5019308;28;20246;-80
2023/04/12 02:15:58;;;;;;;9.73;3.90;;;8.90;99.90;;;;;;5020331;28;20617;-79
2023/04/12 02:18:24;;;;;;;8.73;3.90;;;8.80;99.90;;;;;;5002186;28;20652;-80
2023/04/12 02:20:49;;;;;;;6.40;4.00;;;8.80;99.90;;;;;;5002928;28;20206;-80
2023/04/12 02:23:15;;;;;;;4.80;4.30;;;8.80;99.90;;;;;;5020599;28;20213;-80
2023/04/12 02:25:41;;;;;;;6.27;4.10;;;8.70;99.90;;;;;;5019976;28;20559;-80
2023/04/12 02:28:07;;;;;;;12.77;4.40;;;8.70;99.90;;;;;;5001557;28;20182;-79
2023/04/12 02:30:33;;;;;;;8.03;4.30;;;8.70;99.90;;;;;;5018132;28;20176;-79
2023/04/12 02:32:59;;;;;;;10.57;4.30;;;8.60;99.90;;;;;;5019031;28;20195;-79
2023/04/12 02:35:25;;;;;;;5.47;3.87;;;8.70;99.90;;;;;;5019357;28;20637;-80
2023/04/12 02:37:50;;;;;;;5.93;3.90;;;8.70;99.90;;;;;;5018485;28;20226;-80
2023/04/12 02:40:16;;;;;;;6.27;4.13;;;8.70;99.90;;;;;;5019516;28;20526;-80
2023/04/12 02:42:43;;;;;;;6.87;4.10;;;8.60;99.90;;;;;;5017960;28;20582;-79
2023/04/12 02:45:10;;;;;;;7.10;4.00;;;8.60;99.90;;;;;;5016872;28;20172;-79
2023/04/12 02:47:36;;;;;;;7.43;3.97;;;8.60;99.90;;;;;;5016463;28;20168;-78
2023/04/12 02:50:03;;;;;;;8.73;4.10;;;8.50;99.90;;;;;;5016444;28;20675;-78
2023/04/12 02:52:29;;;;;;;10.43;4.87;;;8.50;99.90;;;;;;5017210;28;20235;-78
2023/04/12 02:54:55;;;;;;;7.70;4.10;;;8.50;99.90;;;;;;4998914;28;20261;-78
2023/04/12 02:57:22;;;;;;;8.97;4.07;;;8.50;99.90;;;;;;5016638;28;20192;-79
2023/04/12 02:59:52;;;;;;;8.73;4.30;;;8.50;99.90;;;;;;5017408;28;20222;-79
2023/04/12 03:02:18;;;;;;;8.47;4.20;;;8.40;99.90;;;;;;4999292;28;20546;-79
2023/04/12 03:04:45;;;;;;;8.13;4.53;;;8.40;99.90;;;;;;5017238;28;20566;-78
2023/04/12 03:07:12;;;;;;;6.33;3.77;;;8.40;99.90;;;;;;5017331;28;20176;-78
2023/04/12 03:09:41;;;;;;;6.80;3.73;;;8.40;99.90;;;;;;4999376;28;20184;-79
2023/04/12 03:12:07;;;;;;;8.03;3.87;;;8.40;99.90;;;;;;4999878;28;20184;-79
2023/04/12 03:14:33;;;;;;;4.20;3.60;;;8.40;99.90;;;;;;5016898;28;20294;-79
2023/04/12 03:16:58;;;;;;;7.20;4.10;;;8.40;99.90;;;;;;4999074;28;20210;-79
2023/04/12 03:19:24;;;;;;;7.90;3.87;;;8.40;99.90;;;;;;4999115;28;20671;-79
2023/04/12 03:21:50;;;;;;;7.97;4.17;;;8.40;99.90;;;;;;4998779;28;20172;-79
2023/04/12 03:24:16;;;;;;;10.00;3.87;;;8.40;99.90;;;;;;5017679;28;20234;-78
2023/04/12 03:26:42;;;;;;;8.33;4.40;;;8.40;99.90;;;;;;5019393;28;20180;-78
2023/04/12 03:29:08;;;;;;;9.73;4.20;;;8.40;99.90;;;;;;5001496;28;20625;-81
2023/04/12 03:31:35;;;;;;;4.30;3.90;;;8.30;99.90;;;;;;5018161;28;20176;-79
2023/04/12 03:34:01;;;;;;;5.57;3.67;;;8.40;99.90;;;;;;4998765;28;20211;-78
2023/04/12 03:36:28;;;;;;;7.47;3.70;;;8.40;99.90;;;;;;5016756;28;20202;-80
2023/04/12 03:38:54;;;;;;;6.43;3.80;;;8.30;99.90;;;;;;5017503;28;20171;-79
2023/04/12 03:41:24;;;;;;;4.37;3.90;;;8.30;99.90;;;;;;5016599;28;20607;-79
2023/04/12 03:43:50;;;;;;;4.17;3.87;;;8.30;99.90;;;;;;4999622;28;20203;-79
2023/04/12 03:46:16;;;;;;;6.50;3.67;;;8.30;99.90;;;;;;5018974;28;20687;-81
2023/04/12 03:48:42;;;;;;;9.73;4.37;;;8.20;99.90;;;;;;5019413;28;20180;-80
2023/04/12 03:51:10;;;;;;;6.43;4.07;;;8.20;99.90;;;;;;5017003;28;20168;-81
2023/04/12 03:53:37;;;;;;;9.40;3.67;;;8.20;99.90;;;;;;5017057;28;20209;-80
2023/04/12 03:56:02;;;;;;;7.03;4.17;;;8.20;99.90;;;;;;5016868;28;20200;-80
2023/04/12 03:58:28;;;;;;;5.80;4.00;;;8.20;99.90;;;;;;5017796;28;20171;-81
2023/04/12 04:00:54;;;;;;;5.40;4.00;;;8.20;99.90;;;;;;5000195;28;20651;-81
2023/04/12 04:03:25;;;;;;;5.37;3.63;;;8.20;99.90;;;;;;5021156;28;20688;-82
2023/04/12 04:05:51;;;;;;;3.57;3.27;;;8.20;99.90;;;;;;5020574;28;20163;-82
2023/04/12 04:08:17;;;;;;;7.93;3.90;;;8.20;99.90;;;;;;5003378;28;20167;-82
2023/04/12 04:10:43;;;;;;;6.87;4.33;;;8.20;99.90;;;;;;5019920;28;20267;-80
2023/04/12 04:13:09;;;;;;;4.30;3.90;;;8.20;99.90;;;;;;5017730;28;20195;-80
2023/04/12 04:15:35;;;;;;;3.90;3.50;;;8.20;99.90;;;;;;5001042;28;20227;-80
2023/04/12 04:18:01;;;;;;;5.80;4.17;;;8.20;99.90;;;;;;5021939;28;20172;-80
2023/04/12 04:20:27;;;;;;;5.57;3.90;;;8.20;99.90;;;;;;5000944;28;20194;-81
2023/04/12 04:22:53;;;;;;;6.93;4.20;;;8.30;99.90;;;;;;5018846;28;20275;-79
2023/04/12 04:25:18;;;;;;;4.47;3.77;;;8.30;99.90;;;;;;5018928;28;20196;-82
2023/04/12 04:27:45;;;;;;;4.90;3.90;;;8.30;99.90;;;;;;5003208;28;20183;-82
2023/04/12 04:30:17;;;;;;;6.00;3.70;;;8.20;99.90;;;;;;5002817;28;20175;-81
2023/04/12 04:32:43;;;;;;;4.50;3.90;;;8.30;99.90;;;;;;5019469;28;20178;-81
2023/04/12 04:35:09;;;;;;;4.33;3.80;;;8.30;99.90;;;;;;5019523;28;20656;-82
2023/04/12 04:37:34;;;;;;;7.07;4.23;;;8.30;99.90;;;;;;5019585;28;20730;-82
2023/04/12 04:40:13;;;;;;;7.03;3.80;;;8.20;99.90;;;;;;5020190;28;20229;-82
2023/04/12 04:42:41;;;;;;;6.43;4.10;;;8.20;99.90;;;;;;5019446;28;20206;-82
2023/04/12 04:45:12;;;;;;;4.50;4.07;;;8.20;99.90;;;;;;5019913;28;20175;-83
2023/04/12 04:47:39;;;;;;;4.20;3.80;;;8.20;99.90;;;;;;5002407;28;20175;-83
2023/04/12 04:50:06;;;;;;;3.93;3.63;;;8.20;99.90;;;;;;5017784;28;20204;-82
2023/04/12 04:52:32;;;;;;;4.10;3.80;;;8.20;99.90;;;;;;5016941;28;20183;-82
2023/04/12 04:54:57;;;;;;;4.20;3.80;;;8.30;99.90;;;;;;5017034;28;20192;-82
2023/04/12 04:57:25;;;;;;;5.40;3.87;;;8.30;99.90;;;;;;4999163;28;20206;-82
2023/04/12 04:59:51;;;;;;;4.43;4.03;;;8.30;99.90;;;;;;5017311;28;20174;-82
2023/04/12 05:02:17;;;;;;;6.83;3.80;;;8.30;99.90;;;;;;4999271;28;20545;-79
2023/04/12 05:04:42;;;;;;;6.00;3.87;;;8.30;99.90;;;;;;4998388;28;20198;-79
2023/04/12 05:07:08;;;;;;;4.07;3.67;;;8.30;99.90;;;;;;5016812;28;20176;-79
2023/04/12 05:09:35;;;;;;;4.57;3.97;;;8.30;99.90;;;;;;5024382;28;20242;-79
2023/04/12 05:12:01;;;;;;;5.20;3.70;;;8.30;99.90;;;;;;5020100;28;20176;-79
2023/04/12 05:14:26;;;;;;;7.67;3.90;;;8.30;99.90;;;;;;5020888;28;20212;-79
2023/04/12 05:16:53;;;;;;;3.70;3.40;;;8.30;99.90;;;;;;5020118;28;20207;-79
2023/04/12 05:19:18;;;;;;;3.60;3.40;;;8.30;99.90;;;;;;5015896;28;20172;-79
2023/04/12 05:21:44;;;;;;;3.83;3.50;;;8.40;99.90;;;;;;5014773;28;20175;-79
2023/04/12 05:24:10;;;;;;;3.70;3.50;;;8.40;99.90;;;;;;5014984;28;20199;-79
2023/04/12 05:26:36;;;;;;;3.97;3.50;;;8.40;99.90;;;;;;5018530;28;20202;-79
2023/04/12 05:29:02;;;;;;;3.87;3.47;;;8.40;99.90;;;;;;5017984;28;20183;-79
2023/04/12 05:31:27;;;;;;;3.70;3.40;;;8.40;99.90;;;;;;5000712;28;20186;-79
2023/04/12 05:33:53;;;;;;;3.73;3.40;;;8.40;99.90;;;;;;5019244;28;20668;-79
2023/04/12 05:36:19;;;;;;;3.80;3.50;;;8.40;99.90;;;;;;5001514;28;20211;-79
2023/04/12 05:38:45;;;;;;;4.07;3.33;;;8.50;99.90;;;;;;5001252;28;20184;-79
2023/04/12 05:41:11;;;;;;;4.10;3.80;;;8.50;99.90;;;;;;5001796;28;20190;-79
2023/04/12 05:43:37;;;;;;;3.73;3.40;;;8.50;99.90;;;;;;5019452;28;20559;-79
2023/04/12 05:46:06;;;;;;;5.13;3.77;;;8.50;99.90;;;;;;5001275;28;20192;-79
2023/04/12 05:48:32;;;;;;;3.60;3.40;;;8.50;99.90;;;;;;5018841;28;20198;-81
2023/04/12 05:50:58;;;;;;;3.93;3.57;;;8.50;99.90;;;;;;5001372;28;20700;-82
2023/04/12 05:53:23;;;;;;;3.70;3.40;;;8.50;99.90;;;;;;5001434;28;20215;-82
2023/04/12 05:55:50;;;;;;;4.00;3.70;;;8.50;99.90;;;;;;5019649;28;20282;-82
2023/04/12 05:58:16;;;;;;;3.60;3.30;;;8.40;99.90;;;;;;5019160;28;20179;-82
2023/04/12 06:00:44;;;;;;;3.40;3.20;;;8.40;99.90;;;;;;5001261;28;20267;-82
2023/04/12 06:03:10;;;;;;;3.40;3.20;;;8.40;99.90;;;;;;5001244;28;20195;-82
2023/04/12 06:05:36;;;;;;;4.43;3.60;;;8.30;99.90;;;;;;5018978;28;20234;-83
2023/04/12 06:08:04;;;;;;;3.73;3.43;;;8.30;99.90;;;;;;5001891;28;20180;-82
2023/04/12 06:10:30;;;;;;;3.83;3.63;;;8.30;99.90;;;;;;5019416;28;20241;-82
2023/04/12 06:12:56;;;;;;;3.60;3.40;;;8.20;99.90;;;;;;5001213;28;20275;-82
2023/04/12 06:15:22;;;;;;;3.70;3.50;;;8.10;99.90;;;;;;5019601;28;20656;-82
2023/04/12 06:17:50;;;;;;;3.90;3.50;;;8.10;99.90;;;;;;5019355;28;20191;-82
2023/04/12 06:20:16;;;;;;;5.17;3.70;;;8.00;99.90;;;;;;5019262;28;20172;-82
2023/04/12 06:22:42;;;;;;;3.43;3.23;;;7.90;99.90;;;;;;5019080;28;20168;-81
2023/04/12 06:25:08;;;;;;;3.83;3.50;;;7.90;99.90;;;;;;5001069;28;20334;-81
2023/04/12 06:27:33;;;;;;;3.73;3.40;;;7.90;99.90;;;;;;5001406;28;20659;-82
2023/04/12 06:29:59;;;;;;;4.07;3.30;;;7.90;99.90;;;;;;5019754;28;20172;-82
2023/04/12 06:32:25;;;;;;;3.93;3.63;;;7.90;99.90;;;;;;5019026;28;20203;-82
2023/04/12 06:34:51;;;;;;;3.50;3.20;;;7.80;99.90;;;;;;5018509;28;20771;-82
2023/04/12 06:37:17;;;;;;;4.13;3.60;;;7.80;99.90;;;;;;5000858;28;20695;-82
2023/04/12 06:39:43;;;;;;;3.37;3.17;;;7.80;99.90;;;;;;5001972;28;20179;-82
2023/04/12 06:42:09;;;;;;;3.50;3.30;;;7.80;99.90;;;;;;5018643;28;20207;-82
2023/04/12 06:44:34;;;;;;;5.23;3.30;;;7.80;99.90;;;;;;5018751;28;20195;-82
2023/04/12 06:47:00;;;;;;;3.50;3.30;;;7.70;99.90;;;;;;5001707;28;20183;-82
2023/04/12 06:49:26;;;;;;;3.60;3.40;;;7.80;99.90;;;;;;5019312;28;20176;-82
2023/04/12 06:51:52;;;;;;;3.73;3.40;;;7.80;99.90;;;;;;5001351;28;20180;-82
2023/04/12 06:54:17;;;;;;;3.90;3.60;;;7.80;99.90;;;;;;5001185;28;20196;-82
2023/04/12 06:56:43;;;;;;;3.70;3.40;;;7.80;99.90;;;;;;5001110;28;20226;-82
2023/04/12 06:59:09;;;;;;;3.07;2.97;;;7.80;99.90;;;;;;5019554;28;20170;-82
2023/04/12 07:01:35;;;;;;;3.77;3.47;;;7.80;99.90;;;;;;5001638;28;20186;-82
2023/04/12 07:04:00;;;;;;;3.63;3.40;;;7.80;99.90;;;;;;5019339;28;20200;-82
2023/04/12 07:06:29;;;;;;;3.33;3.13;;;7.80;99.90;;;;;;5018488;28;20183;-82
2023/04/12 07:08:54;;;;;;;3.30;3.10;;;7.90;99.90;;;;;;4998844;28;20637;-82
2023/04/12 07:11:21;;;;;;;3.50;3.30;;;7.90;99.90;;;;;;5017740;28;20183;-82
2023/04/12 07:13:47;;;;;;;4.13;3.50;;;7.80;99.90;;;;;;4999689;28;20212;-82
2023/04/12 07:16:13;;;;;;;3.60;3.30;;;7.90;99.90;;;;;;5000263;28;20327;-80
2023/04/12 07:18:39;;;;;;;3.10;3.00;;;7.90;99.90;;;;;;5018140;28;20214;-80
2023/04/12 07:21:05;;;;;;;3.20;3.00;;;7.90;99.90;;;;;;5018425;28;20179;-80
2023/04/12 07:23:31;;;;;;;3.53;3.33;;;7.90;99.90;;;;;;5018018;28;20204;-80
2023/04/12 07:26:01;;;;;;;3.40;3.10;;;7.90;99.90;;;;;;4999408;28;20559;-79
2023/04/12 07:28:27;;;;;;;2.80;2.70;;;7.90;99.90;;;;;;5017116;28;20226;-78
2023/04/12 07:30:53;;;;;;;3.13;2.93;;;8.00;99.90;;;;;;5017005;28;20172;-78
2023/04/12 07:33:19;;;;;;;3.03;2.87;;;8.00;99.90;;;;;;5017902;28;20199;-78
2023/04/12 07:35:45;;;;;;;3.00;2.80;;;8.10;99.90;;;;;;4999463;28;20208;-78
2023/04/12 07:38:11;;;;;;;3.03;2.93;;;8.10;99.90;;;;;;5000270;28;20183;-78
2023/04/12 07:40:36;;;;;;;2.80;2.70;;;8.20;99.90;;;;;;5018088;28;20172;-79
2023/04/12 07:43:02;;;;;;;3.20;3.00;;;8.20;99.90;;;;;;5000273;28;20294;-79
2023/04/12 07:45:28;;;;;;;3.30;3.10;;;8.20;99.90;;;;;;5018197;28;20179;-79
2023/04/12 07:47:54;;;;;;;3.20;3.00;;;8.30;99.90;;;;;;5026814;28;20176;-81
2023/04/12 07:50:20;;;;;;;2.73;2.63;;;8.30;99.90;;;;;;5018955;28;20659;-81
2023/04/12 07:52:46;;;;;;;2.80;2.70;;;8.30;99.90;;;;;;5017843;28;20503;-81
2023/04/12 07:55:11;;;;;;;3.30;3.10;;;8.30;99.90;;;;;;4999818;28;20271;-81
2023/04/12 07:57:37;;;;;;;3.00;2.80;;;8.40;99.90;;;;;;5017753;28;20207;-81
2023/04/12 08:00:04;;;;;;;2.90;2.80;;;8.40;99.90;;;;;;5000006;28;20179;-81
2023/04/12 08:02:30;;;;;;;3.30;3.10;;;8.40;99.90;;;;;;5017077;28;20259;-79
2023/04/12 08:04:56;;;;;;;3.07;2.97;;;8.50;99.90;;;;;;5017089;28;20219;-79
2023/04/12 08:07:22;;;;;;;2.80;2.70;;;8.50;99.90;;;;;;4999210;28;20653;-79
2023/04/12 08:09:49;;;;;;;3.20;3.00;;;8.50;99.90;;;;;;5017449;28;20263;-80
2023/04/12 08:12:15;;;;;;;3.10;3.00;;;8.50;99.90;;;;;;5016831;28;20178;-79
2023/04/12 08:14:41;;;;;;;3.17;2.97;;;8.60;99.90;;;;;;4999801;28;20633;-79
2023/04/12 08:17:07;;;;;;;3.00;2.80;;;8.80;99.90;;;;;;5017467;28;20192;-79
2023/04/12 08:19:34;;;;;;;2.93;2.73;;;9.10;99.90;;;;;;4999301;28;20544;-79
2023/04/12 08:22:00;;;;;;;2.80;2.70;;;9.30;99.90;;;;;;5017275;28;20218;-79
2023/04/12 08:24:26;;;;;;;2.93;2.80;;;9.40;99.90;;;;;;4999680;28;20538;-79
2023/04/12 08:26:52;;;;;;;2.90;2.80;;;9.60;99.90;;;;;;5017191;28;20211;-79
2023/04/12 08:29:18;;;;;;;2.87;2.77;;;9.70;99.90;;;;;;4999574;28;20186;-79
2023/04/12 08:31:44;;;;;;;2.80;2.70;;;9.80;99.90;;;;;;4999344;28;20180;-80
2023/04/12 08:34:10;;;;;;;3.00;2.80;;;9.60;99.90;;;;;;4999417;28;20207;-80
2023/04/12 08:36:36;;;;;;;3.13;2.70;;;9.50;99.90;;;;;;5017049;28;20192;-80
2023/04/12 08:39:02;;;;;;;2.93;2.70;;;9.40;99.90;;;;;;4998990;28;20554;-80
2023/04/12 08:41:28;;;;;;;3.13;2.80;;;9.40;99.90;;;;;;5000062;28;20667;-80
2023/04/12 08:43:57;;;;;;;3.17;2.97;;;9.40;99.90;;;;;;5016455;28;20667;-79
2023/04/12 08:46:22;;;;;;;3.10;2.90;;;9.30;99.90;;;;;;5007771;28;20235;-80
2023/04/12 08:48:53;;;;;;;3.10;2.80;;;9.30;99.90;;;;;;5036316;28;20195;-80
2023/04/12 08:51:20;;;;;;;3.40;2.80;;;9.30;99.90;;;;;;5018080;28;20247;-80
2023/04/12 08:53:46;;;;;;;2.60;2.50;;;9.40;99.90;;;;;;5015754;28;20191;-79
2023/04/12 08:56:13;;;;;;;2.80;2.70;;;9.40;99.90;;;;;;5015833;28;20200;-80
2023/04/12 08:58:41;;;;;;;2.80;2.70;;;9.40;99.90;;;;;;4998205;28;20663;-80
2023/04/12 09:01:12;;;;;;;2.80;2.70;;;9.40;99.90;;;;;;5001603;28;20233;-79
2023/04/12 09:03:39;;;;;;;3.00;2.80;;;9.40;99.90;;;;;;5019049;28;20195;-80
2023/04/12 09:06:05;;;;;;;2.77;2.67;;;9.40;99.90;;;;;;5001759;28;20193;-80
2023/04/12 09:08:31;;;;;;;2.93;2.83;;;9.40;99.90;;;;;;5001622;28;20188;-79
2023/04/12 09:10:57;;;;;;;2.90;2.80;;;9.50;99.90;;;;;;5019714;28;20176;-79
2023/04/12 09:13:37;;;;;;;2.83;2.73;;;9.50;99.90;;;;;;5001535;28;20227;-79
2023/04/12 09:16:03;;;;;;;2.80;2.70;;;9.50;99.90;;;;;;5019530;28;20196;-79
2023/04/12 09:18:29;;;;;;;2.90;2.70;;;9.70;99.90;;;;;;5019803;28;20223;-79
2023/04/12 09:21:13;;;;;;;2.97;2.77;;;9.70;99.90;;;;;;5001937;28;20556;-79
2023/04/12 09:23:39;;;;;;;2.90;2.70;;;9.70;99.90;;;;;;5002172;28;20223;-79
2023/04/12 09:26:05;;;;;;;2.80;2.70;;;9.90;99.90;;;;;;5002129;28;20180;-80
2023/04/12 09:28:31;;;;;;;2.50;2.40;;;10.00;99.90;;;;;;5019869;28;20204;-80
2023/04/12 09:30:59;;;;;;;2.90;2.70;;;9.90;99.90;;;;;;5019777;28;20183;-80
2023/04/12 09:33:36;;;;;;;3.10;2.70;;;9.80;99.90;;;;;;5019889;28;20203;-80
2023/04/12 09:36:04;;;;;;;2.80;2.70;;;9.70;99.90;;;;;;5002488;28;20206;-80
2023/04/12 09:38:35;;;;;;;3.10;2.90;;;9.70;99.90;;;;;;5002984;28;20322;-80
2023/04/12 09:41:29;;;;;;;2.80;2.60;;;9.70;99.90;;;;;;5002552;28;20298;-79
2023/04/12 09:43:55;;;;;;;3.07;2.80;;;9.70;99.90;;;;;;5002541;28;20226;-80
2023/04/12 09:46:21;;;;;;;2.70;2.60;;;9.80;99.90;;;;;;5001942;28;20187;-79
2023/04/12 09:48:57;;;;;;;2.90;2.70;;;9.80;99.90;;;;;;5001658;28;20187;-79
2023/04/12 09:51:28;;;;;;;2.97;2.87;;;9.80;99.90;;;;;;5002507;28;20191;-80
2023/04/12 09:54:04;;;;;;;3.63;3.00;;;9.80;99.90;;;;;;5019510;28;20199;-79
2023/04/12 09:56:35;;;;;;;2.90;2.80;;;9.90;99.90;;;;;;5019514;28;20613;-79
2023/04/12 09:59:06;;;;;;;2.80;2.70;;;10.00;99.90;;;;;;5002219;28;20187;-79
2023/04/12 10:01:37;;;;;;;2.67;2.57;;;10.10;99.90;;;;;;5001603;28;20184;-79
2023/04/12 10:04:06;;;;;;;2.80;2.60;;;10.20;99.90;;;;;;5019582;28;20199;-79
2023/04/12 10:06:35;;;;;;;3.03;2.70;;;10.40;99.90;;;;;;5019006;28;20643;-79
2023/04/12 10:09:05;;;;;;;2.90;2.80;;;10.30;99.90;;;;;;5020248;28;20164;-79
2023/04/12 10:11:32;;;;;;;2.80;2.60;;;10.30;99.90;;;;;;5001123;28;20237;-79
2023/04/12 10:14:01;;;;;;;2.53;2.43;;;10.40;99.90;;;;;;5019995;28;20247;-79
2023/04/12 10:16:27;;;;;;;2.70;2.60;;;10.60;99.90;;;;;;5002192;28;20265;-79
2023/04/12 10:18:54;;;;;;;2.60;2.50;;;10.60;99.90;;;;;;5001131;28;20184;-80
2023/04/12 10:21:20;;;;;;;2.77;2.57;;;10.60;99.90;;;;;;5018031;28;20176;-80
2023/04/12 10:23:46;;;;;;;2.40;2.30;;;10.60;99.90;;;;;;5000704;28;20207;-79
2023/04/12 10:26:15;;;;;;;2.30;2.20;;;10.70;99.90;;;;;;5000301;28;20598;-79
2023/04/12 10:28:46;;;;;;;2.70;2.60;;;10.70;99.90;;;;;;5000502;28;20250;-79
2023/04/12 10:31:29;;;;;;;2.60;2.50;;;10.80;99.90;;;;;;5001457;28;20218;-79
2023/04/12 10:33:55;;;;;;;2.60;2.50;;;10.70;99.90;;;;;;5018250;28;20338;-79
2023/04/12 10:36:57;;;;;;;2.57;2.40;;;10.60;99.90;;;;;;5018828;28;20208;-79
2023/04/12 10:39:40;;;;;;;2.50;2.40;;;10.60;99.90;;;;;;5001543;28;20206;-80
2023/04/12 10:42:25;;;;;;;2.80;2.60;;;10.70;99.90;;;;;;5020185;28;20225;-79
2023/04/12 10:44:56;;;;;;;2.70;2.60;;;10.90;99.90;;;;;;5020000;28;20187;-80
2023/04/12 10:47:54;;;;;;;2.50;2.40;;;11.30;99.90;;;;;;5020306;28;20294;-80
2023/04/12 10:50:23;;;;;;;2.60;2.50;;;11.90;99.90;;;;;;5001946;28;20184;-80
2023/04/12 10:53:14;;;;;;;2.42;2.33;;;12.40;99.90;;;;;;5001944;28;20184;-80
2023/04/12 10:55:44;;;;;;;2.40;2.30;;;12.50;99.90;;;;;;5019424;28;20705;-80
2023/04/12 10:58:48;;;;;;;2.40;2.30;;;12.40;99.90;;;;;;5019915;28;20176;-80
2023/04/12 11:01:17;;;;;;;2.40;2.30;;;12.30;99.90;;;;;;5002622;28;20222;-80
2023/04/12 11:04:11;;;;;;;2.30;2.20;;;12.10;99.90;;;;;;5019907;28;20202;-80
2023/04/12 11:06:40;;;;;;;2.80;2.60;;;12.20;99.90;;;;;;5019483;28;20176;-80
2023/04/12 11:09:15;;;;;;;2.40;2.30;;;12.10;99.90;;;;;;5018550;28;20182;-80
2023/04/12 11:11:41;;;;;;;2.60;2.40;;;11.90;99.90;;;;;;5002030;28;20243;-80
2023/04/12 11:14:09;;;;;;;2.50;2.40;;;11.80;99.90;;;;;;5019208;28;20247;-80
2023/04/12 11:17:04;;;;;;;2.35;2.20;;;11.70;99.90;;;;;;5002239;28;20207;-79
2023/04/12 11:19:31;;;;;;;2.30;2.20;;;11.60;99.90;;;;;;5020462;28;20258;-80
2023/04/12 11:21:58;;;;;;;2.33;2.22;;;11.30;99.90;;;;;;5020389;28;20183;-81
2023/04/12 11:24:25;;;;;;;2.50;2.40;;;11.20;99.90;;;;;;5019919;28;20691;-80
2023/04/12 11:26:51;;;;;;;2.70;2.60;;;10.90;99.90;;;;;;5001778;28;20191;-80
2023/04/12 11:29:26;;;;;;;2.50;2.30;;;10.80;99.90;;;;;;5019301;28;20540;-80
2023/04/12 11:31:53;;;;;;;2.60;2.50;;;10.70;99.90;;;;;;5001139;28;20175;-80
2023/04/12 11:34:20;;;;;;;2.63;2.50;;;10.70;99.90;;;;;;5001120;28;20298;-80
2023/04/12 11:36:47;;;;;;;2.75;2.60;;;10.90;99.90;;;;;;5018838;28;20210;-80
2023/04/12 11:39:13;;;;;;;2.60;2.50;;;11.10;99.90;;;;;;5002505;28;20193;-80
2023/04/12 11:41:45;;;;;;;3.17;2.50;;;11.20;99.90;;;;;;5019865;28;20183;-80
2023/04/12 11:44:13;;;;;;;2.60;2.50;;;11.20;99.90;;;;;;5019284;28;20203;-79
2023/04/12 11:46:39;;;;;;;2.55;2.45;;;11.30;99.90;;;;;;5002047;28;20206;-79
2023/04/12 11:49:05;;;;;;;2.80;2.70;;;11.40;99.90;;;;;;5019181;28;20640;-80
2023/04/12 11:51:31;;;;;;;2.65;2.55;;;11.60;99.90;;;;;;5002327;28;20187;-80
2023/04/12 11:53:58;;;;;;;2.88;2.58;;;11.80;99.90;;;;;;5001445;28;20207;-80
2023/04/12 11:56:25;;;;;;;2.90;2.70;;;11.90;99.90;;;;;;5020270;28;20227;-80
2023/04/12 11:58:51;;;;;;;2.40;2.30;;;11.90;99.90;;;;;;5019974;28;20176;-81
2023/04/12 12:01:19;;;;;;;2.60;2.50;;;11.80;99.90;;;;;;5019524;28;20178;-82
2023/04/12 12:03:45;;;;;;;2.90;2.70;;;11.70;99.90;;;;;;5001526;28;20199;-81
2023/04/12 12:06:12;;;;;;;3.25;3.05;;;11.60;99.90;;;;;;5000509;28;20579;-81
2023/04/12 12:08:38;;;;;;;3.50;3.30;;;11.30;99.90;;;;;;5018087;28;20186;-82
2023/04/12 12:11:04;;;;;;;3.00;2.80;;;11.10;99.90;;;;;;5000070;28;20191;-82
2023/04/12 12:13:47;;;;;;;3.73;3.43;;;10.60;99.90;;;;;;5017964;28;20703;-82
2023/04/12 12:16:13;;;;;;;4.87;3.93;;;10.20;99.90;;;;;;5000772;28;20203;-82
2023/04/12 12:18:44;;;;;;;3.53;3.23;;;10.00;99.90;;;;;;5019552;28;20172;-82
2023/04/12 12:21:12;;;;;;;3.63;3.17;;;10.00;99.90;;;;;;5013296;28;20175;-80
2023/04/12 12:23:38;;;;;;;3.47;3.17;;;10.00;99.90;;;;;;5035175;28;20203;-81
2023/04/12 12:26:05;;;;;;;3.90;3.60;;;10.00;99.90;;;;;;5016726;28;20180;-81
2023/04/12 12:28:39;;;;;;;3.53;3.23;;;9.90;99.90;;;;;;4999048;28;20191;-81
2023/04/12 12:31:06;;;;;;;4.43;4.10;;;9.90;99.90;;;;;;5016634;28;20194;-82
2023/04/12 12:33:41;;;;;;;4.10;3.70;;;9.90;99.90;;;;;;5015685;28;20293;-82
2023/04/12 12:36:08;;;;;;;4.20;3.80;;;10.10;99.90;;;;;;5015852;28;20231;-82
2023/04/12 12:38:38;;;;;;;4.70;4.20;;;10.20;99.90;;;;;;4998631;28;20176;-81
2023/04/12 12:41:20;;;;;;;5.37;4.87;;;10.20;99.90;;;;;;5016509;28;20167;-82
2023/04/12 12:43:47;;;;;;;5.30;4.60;;;10.30;99.90;;;;;;4999337;28;20199;-82
2023/04/12 12:46:13;;;;;;;8.50;5.77;;;10.40;99.90;;;;;;5016865;28;20549;-82
2023/04/12 12:48:46;;;;;;;9.07;6.00;;;10.40;99.90;;;;;;5016251;28;20180;-82
2023/04/12 12:51:13;;;;;;;6.03;5.50;;;10.40;99.90;;;;;;5016988;28;20211;-83
2023/04/12 12:53:40;;;;;;;6.75;6.13;;;10.40;99.90;;;;;;5018058;28;20192;-82
2023/04/12 12:56:09;;;;;;;7.37;6.53;;;10.50;99.90;;;;;;5000598;28;20584;-82
2023/04/12 12:58:35;;;;;;;7.35;6.35;;;10.50;99.90;;;;;;5018772;28;20172;-82
2023/04/12 13:01:03;;;;;;;6.90;5.60;;;10.60;99.90;;;;;;5018692;28;20213;-82
2023/04/12 13:03:32;;;;;;;7.45;6.18;;;10.80;99.90;;;;;;5017922;28;20191;-82
2023/04/12 13:05:58;;;;;;;6.90;6.20;;;10.90;99.90;;;;;;5019397;28;20175;-83
2023/04/12 13:08:25;;;;;;;6.50;5.90;;;11.00;99.90;;;;;;5017991;28;20171;-83
2023/04/12 13:10:51;;;;;;;6.70;6.10;;;11.00;99.90;;;;;;4999886;28;20195;-83
2023/04/12 13:13:20;;;;;;;7.15;4.97;;;11.10;99.90;;;;;;5017108;28;20200;-82
2023/04/12 13:15:46;;;;;;;9.23;6.03;;;11.00;99.90;;;;;;5017315;28;20187;-82
2023/04/12 13:18:15;;;;;;;5.40;4.90;;;11.10;99.90;;;;;;5000080;28;20243;-82
2023/04/12 13:20:41;;;;;;;5.68;4.88;;;11.00;99.90;;;;;;5017858;28;20180;-83
2023/04/12 13:23:07;;;;;;;5.93;5.43;;;11.00;99.90;;;;;;5017700;28;20199;-83
2023/04/12 13:25:33;;;;;;;6.00;5.07;;;11.00;99.90;;;;;;5018001;28;20172;-81
2023/04/12 13:27:59;;;;;;;6.50;5.72;;;11.00;99.90;;;;;;5017616;28;20168;-81
2023/04/12 13:30:25;;;;;;;6.90;5.55;;;11.10;99.90;;;;;;4999910;28;20251;-81